Buffalo, MN

10:09 PM CST on December 06, 2019 (GMT -0600)
Buffalo

Weather History for KCFE - October, 2019

Change the Weather History Date:

Tuesday, October 22, 2019

  Actual Average (KMIC) Record (KMIC)
Temperature  
Mean Temperature 41 °F -  
Max Temperature 43 °F 53 °F 80 °F (1992)
Min Temperature 39 °F 35 °F 24 °F (2013)
Degree Days  
Heating Degree Days 24    
Moisture  
Dew Point 35 °F    
Average Humidity 77    
Maximum Humidity 89    
Minimum Humidity 66    
Precipitation  
Precipitation 0.11 in - - ()
Sea Level Pressure  
Sea Level Pressure 29.52 in    
Wind  
Wind Speed - (North)    
Max Wind Speed -    
Max Gust Speed -    
Visibility 9 miles    
Events Rain    
Averages and records for this station are not official NWS values.
T = Trace of Precipitation, MM = Missing Value Source: NWS Daily Summary

Daily Weather History Graph

Daily Weather History Graph

Search for Another Location

Airport or City:

Astronomy

Oct. 22, 2019 Rise Set
Actual Time 7:40 AM CDT 6:18 PM CDT
Civil Twilight 7:10 AM CDT 6:48 PM CDT
Nautical Twilight 6:35 AM CDT 7:22 PM CDT
Astronomical Twilight 6:01 AM CDT 7:56 PM CDT
Moon 12:27 AM CDT (10/22) 3:49 PM CDT (10/22)
Length of Visible Light 11h 38m
Length of Day
10h 38m
Last Quarter, 37% of the Moon is Illuminated
Oct 22
Last Quarter
Oct 27
New
Nov 4
First Quarter
Nov 12
Full
Nov 19
Last Quarter

Hourly Weather History & Observations

Time (CDT) Temp. Dew Point Humidity Pressure Visibility Wind Dir Wind Speed Gust Speed Precip Events Conditions
12:15 AM 41.9 °F 38.3 °F 87% 29.25 in 7.0 mi North - - N/A   Overcast
12:35 AM 41.7 °F 38.3 °F 88% 29.26 in 5.0 mi North - - N/A   Overcast
12:55 AM 41.5 °F 38.5 °F 89% 29.27 in 4.0 mi North - - N/A   Drizzle
12:56 AM 41.5 °F 38.5 °F 89% 29.27 in 4.0 mi North - - N/A   Drizzle
1:15 AM 41.5 °F 38.5 °F 89% 29.28 in 4.0 mi North - - N/A   Light Drizzle
1:16 AM 41.5 °F 38.5 °F 89% 29.28 in 4.0 mi North - - N/A   Light Drizzle
1:35 AM 41.9 °F 37.9 °F 86% 29.29 in 7.0 mi North - - N/A   Light Drizzle
1:55 AM 41.5 °F 37.6 °F 86% 29.29 in 7.0 mi North - - 0.01 in Rain Light Rain
1:56 AM 41.5 °F 37.6 °F 86% 29.29 in 7.0 mi North - - 0.01 in Rain Light Rain
2:15 AM 41.9 °F 37.8 °F 85% 29.30 in 10.0 mi North - - 0.01 in Rain Rain
2:35 AM 42.1 °F 38.5 °F 87% 29.30 in 10.0 mi North - - 0.02 in Rain Rain
2:36 AM 42.3 °F 38.7 °F 87% 29.30 in 10.0 mi North - - 0.02 in Rain Rain
2:55 AM 42.8 °F 39.4 °F 88% 29.31 in 10.0 mi North - - 0.02 in   Drizzle
3:15 AM 42.8 °F 39.6 °F 88% 29.31 in 7.0 mi North - - 0.01 in Rain Light Rain
3:35 AM 42.8 °F 39.4 °F 88% 29.32 in 7.0 mi North - - 0.02 in Rain Light Rain
3:55 AM 42.8 °F 39.0 °F 86% 29.32 in 7.0 mi North - - 0.03 in Rain Rain
3:56 AM 42.8 °F 39.0 °F 86% 29.32 in 7.0 mi North - - 0.03 in Rain Rain
4:15 AM 42.6 °F 38.5 °F 85% 29.33 in 10.0 mi North - - N/A Rain Light Rain
4:35 AM 42.3 °F 38.3 °F 86% 29.35 in 10.0 mi North - - 0.01 in Rain Light Rain
4:36 AM 42.3 °F 38.1 °F 85% 29.35 in 10.0 mi North - - 0.01 in Rain Light Rain
4:55 AM 41.9 °F 37.8 °F 85% 29.35 in 10.0 mi North - - 0.02 in Rain Rain
5:55 AM 41.5 °F 37.4 °F 85% 29.38 in 10.0 mi North - - 0.01 in   Light Drizzle
6:15 AM 41.2 °F 37.0 °F 85% 29.39 in 10.0 mi North - - N/A Rain Light Rain
6:35 AM 41.0 °F 36.7 °F 85% 29.40 in 7.0 mi North - - N/A   Drizzle
6:55 AM 40.5 °F 36.7 °F 86% 29.41 in 10.0 mi North - - N/A   Drizzle
7:15 AM 40.1 °F 36.1 °F 86% 29.42 in 10.0 mi North - - 0.01 in   Drizzle
7:35 AM 39.6 °F 36.3 °F 88% 29.42 in 10.0 mi North - - 0.01 in   Drizzle
7:55 AM 39.4 °F 36.1 °F 88% 29.43 in 10.0 mi North - - 0.01 in   Drizzle
8:15 AM 39.6 °F 36.1 °F 88% 29.44 in 10.0 mi North - - N/A   Drizzle
8:35 AM 39.4 °F 36.0 °F 88% 29.44 in 7.0 mi North - - 0.01 in   Drizzle
8:36 AM 39.4 °F 36.0 °F 88% 29.44 in 7.0 mi North - - 0.01 in   Drizzle
8:55 AM 39.2 °F 36.0 °F 88% 29.45 in 7.0 mi North - - 0.01 in   Drizzle
9:35 AM 39.6 °F 36.0 °F 87% 29.47 in 7.0 mi North - - N/A   Light Drizzle
9:55 AM 39.6 °F 36.0 °F 87% 29.48 in 10.0 mi North - - N/A   Overcast
10:15 AM 39.6 °F 35.8 °F 86% 29.48 in 7.0 mi North - - N/A   Light Drizzle
10:16 AM 39.6 °F 35.8 °F 86% 29.48 in 7.0 mi North - - N/A   Light Drizzle
10:35 AM 39.4 °F 35.4 °F 86% 29.49 in 10.0 mi North - - N/A   Overcast
10:55 AM 39.6 °F 35.2 °F 85% 29.50 in 10.0 mi North - - N/A   Light Drizzle
11:15 AM 39.7 °F 35.6 °F 85% 29.51 in 10.0 mi North - - N/A Rain Light Rain
11:16 AM 39.7 °F 35.6 °F 85% 29.51 in 10.0 mi North - - N/A Rain Light Rain
11:35 AM 39.6 °F 35.2 °F 85% 29.51 in 10.0 mi North - - N/A   Light Drizzle
11:56 AM 40.1 °F 35.1 °F 82% 29.52 in 10.0 mi North - - N/A   Overcast
12:15 PM 40.1 °F 34.7 °F 81% 29.52 in 10.0 mi North - - N/A   Overcast
12:55 PM 40.1 °F 33.8 °F 78% 29.53 in 10.0 mi North - - N/A   Overcast
1:35 PM 41.2 °F 33.8 °F 75% 29.54 in 10.0 mi North - - N/A   Overcast
1:36 PM 41.2 °F 33.8 °F 75% 29.54 in 10.0 mi North - - N/A   Overcast
1:55 PM 41.5 °F 34.2 °F 75% 29.54 in 10.0 mi North - - N/A   Overcast
2:15 PM 41.2 °F 32.9 °F 72% 29.55 in 10.0 mi North - - N/A   Overcast
2:35 PM 41.9 °F 33.6 °F 72% 29.56 in 10.0 mi North - - N/A   Overcast
2:55 PM 42.1 °F 33.6 °F 72% 29.57 in 10.0 mi North - - N/A   Overcast
2:56 PM 42.1 °F 33.3 °F 71% 29.57 in 10.0 mi North - - N/A   Overcast
3:15 PM 41.9 °F 32.7 °F 70% 29.58 in 10.0 mi North - - N/A   Overcast
3:16 PM 41.9 °F 32.7 °F 70% 29.58 in 10.0 mi North - - N/A   Overcast
3:35 PM 42.3 °F 32.7 °F 69% 29.58 in 10.0 mi North - - N/A   Overcast
3:55 PM 42.6 °F 32.7 °F 68% 29.59 in 10.0 mi North - - N/A   Overcast
3:56 PM 42.8 °F 32.9 °F 68% 29.59 in 10.0 mi North - - N/A   Overcast
4:15 PM 43.0 °F 32.7 °F 67% 29.61 in 10.0 mi North - - N/A   Overcast
4:35 PM 43.0 °F 32.9 °F 68% 29.61 in 10.0 mi North - - N/A   Overcast
4:36 PM 43.0 °F 32.9 °F 68% 29.61 in 10.0 mi North - - N/A   Overcast
4:55 PM 43.0 °F 32.9 °F 68% 29.62 in 10.0 mi North - - N/A   Overcast
5:15 PM 43.2 °F 33.1 °F 68% 29.63 in 10.0 mi North - - N/A   Overcast
5:35 PM 42.8 °F 33.4 °F 70% 29.64 in 10.0 mi North - - N/A   Light Drizzle
5:36 PM 42.8 °F 33.3 °F 69% 29.64 in 10.0 mi North - - N/A   Light Drizzle
5:55 PM 43.0 °F 32.2 °F 66% 29.65 in 10.0 mi North - - N/A   Overcast
6:15 PM 42.8 °F 32.4 °F 67% 29.65 in 10.0 mi North - - N/A   Overcast
6:16 PM 42.8 °F 32.4 °F 67% 29.65 in 10.0 mi North - - N/A   Overcast
6:35 PM 42.8 °F 32.4 °F 67% 29.66 in 10.0 mi North - - N/A   Overcast
6:55 PM 42.8 °F 32.5 °F 67% 29.66 in 10.0 mi North - - N/A   Overcast
7:15 PM 42.8 °F 32.5 °F 67% 29.67 in 10.0 mi North - - N/A   Overcast
7:35 PM 42.8 °F 32.4 °F 67% 29.67 in 10.0 mi North - - N/A   Overcast
7:36 PM 42.8 °F 32.4 °F 67% 29.67 in 10.0 mi North - - N/A   Overcast
7:55 PM 42.8 °F 32.2 °F 66% 29.68 in 10.0 mi North - - N/A   Overcast
8:15 PM 42.8 °F 32.2 °F 66% 29.68 in 10.0 mi North - - N/A   Overcast
8:16 PM 42.8 °F 32.2 °F 66% 29.68 in 10.0 mi North - - N/A   Overcast
8:35 PM 42.8 °F 32.2 °F 66% 29.68 in 10.0 mi North - - N/A   Overcast
8:55 PM 42.8 °F 32.0 °F 66% 29.69 in 10.0 mi North - - N/A   Overcast
8:56 PM 42.8 °F 32.0 °F 66% 29.69 in 10.0 mi North - - N/A   Overcast
9:15 PM 42.6 °F 32.0 °F 66% 29.69 in 10.0 mi North - - N/A   Overcast
9:35 PM 42.4 °F 32.0 °F 67% 29.69 in 10.0 mi North - - N/A   Overcast
9:36 PM 42.4 °F 32.0 °F 67% 29.69 in 10.0 mi North - - N/A   Overcast
9:55 PM 42.3 °F 32.0 °F 67% 29.70 in 10.0 mi North - - N/A   Overcast
9:56 PM 42.3 °F 32.0 °F 67% 29.70 in 10.0 mi North - - N/A   Overcast
10:15 PM 42.1 °F 32.0 °F 67% 29.70 in 10.0 mi North - - N/A   Overcast
10:16 PM 42.1 °F 32.0 °F 67% 29.70 in 10.0 mi North - - N/A   Overcast
10:35 PM 41.2 °F 32.0 °F 70% 29.71 in 10.0 mi North - - N/A   Scattered Clouds
10:55 PM 40.6 °F 32.0 °F 71% 29.71 in 10.0 mi North - - N/A   Clear
11:15 PM 39.9 °F 32.0 °F 73% 29.72 in 10.0 mi North - - N/A   Clear
11:35 PM 40.3 °F 32.0 °F 72% 29.72 in 10.0 mi North - - N/A   Mostly Cloudy
11:36 PM 40.3 °F 32.0 °F 72% 29.72 in 10.0 mi North - - N/A   Mostly Cloudy
11:55 PM 39.4 °F 32.0 °F 75% 29.72 in 10.0 mi North - - N/A   Scattered Clouds